< < Back
Terminal Aerodrome Forecast


Current Version              Previous Versions:   1  2  3  4  5  6  7  8  9  

Terminal Aerodrome Forecast

154
FTUS42 KFFC 042140 AAB
TAFATL
TAF AMD
KATL 042140Z 0422/0524 31010G17KT P6SM BKN070
     FM050000 33012KT P6SM BKN070
      TEMPO 0500/0503 33012G20KT 6SM SHRA BKN050
     FM050300 32012KT P6SM BKN060
     FM050900 31015G23KT P6SM SCT060
     FM051500 31018G27KT P6SM BKN060=



Latest METAR

998
SAUS70 KWBC 042300 RRA
MTRATL
METAR KATL 042252Z 29012KT 10SM FEW070 21/06 A2971 RMK AO2 SLP056
T02060056


USA.gov is the U.S. government's official web portal to all federal, state and local government web resources and services.